Irving North's Hourly Summary for Thursday, July 5, 2018
Hour Temp
(f)
RH
(%)
Solar Rad.
(MJ/m2)
Rainfall
(in)
Wind
(mph)
7/5/2018 12:00 AM 79 65 0 0 5.24
7/5/2018 1:00 AM 77 70 0 0 4
7/5/2018 2:00 AM 76 74 0 0 1.72
7/5/2018 3:00 AM 77 75 0 0 1.66
7/5/2018 4:00 AM 76 75 0 0 2.18
7/5/2018 5:00 AM 76 77 0 0 2.89
7/5/2018 6:00 AM 76 78 0.02 0 2.02
7/5/2018 7:00 AM 77 73 0.4 0 2.82
7/5/2018 8:00 AM 80 64 1.11 0 2.42
7/5/2018 9:00 AM 82 56 1.66 0 2.63
7/5/2018 10:00 AM 84 52 2.42 0 2.54
7/5/2018 11:00 AM 86 47 2.77 0 3.08
7/5/2018 12:00 PM 89 44 3.1 0 4.95
7/5/2018 1:00 PM 91 41 3.02 0 4.12
7/5/2018 2:00 PM 93 36 3.33 0 4.53
7/5/2018 3:00 PM 95 34 2.77 0 3.78
7/5/2018 4:00 PM 94 34 1.99 0 4.97
7/5/2018 5:00 PM 95 35 1.33 0 5.5
7/5/2018 6:00 PM 95 34 0.89 0 5.54
7/5/2018 7:00 PM 93 37 0.25 0 6.41
7/5/2018 8:00 PM 91 43 0.06 0 8.13
7/5/2018 9:00 PM 89 48 0 0 7.44
7/5/2018 10:00 PM 88 53 0 0 7.45
7/5/2018 11:00 PM 86 56 0 0 6.76
Data Summary 85 54 25.12 0.00 4.28